Terminal Aerodrome Forecast
Issued by NWS Charleston, WV

Current Version | Previous Version | Text Only | Print | Product List | Glossary Off
Versions: 1 2 3 4 5 6 7 8 9 10 11 12 13 14 15 16 17 18 19 20 21 22 23

561
FTUS41 KRLX 220520
TAFEKN
TAF
KEKN 220520Z 2206/2306 18005KT P6SM SCT120
     FM220800 VRB03KT P6SM OVC030
     FM221000 27005KT P6SM BKN015
     FM221500 27007KT P6SM BKN025
     FM221700 27007KT P6SM BKN040
     FM222000 28008KT P6SM SCT110=

USA.gov is the U.S. government's official web portal to all federal, state and local government web resources and services.